createdAt,value
2018-02-27T00:00:00.595Z,-10.48
2018-02-27T00:02:28.189Z,-10.46
2018-02-27T00:04:55.829Z,-10.48
2018-02-27T00:07:23.725Z,-10.47
2018-02-27T00:09:51.304Z,-10.52
2018-02-27T00:12:18.924Z,-10.64
2018-02-27T00:14:46.525Z,-10.75
2018-02-27T00:17:14.106Z,-10.67
2018-02-27T00:19:41.696Z,-10.56
2018-02-27T00:22:09.301Z,-10.61
2018-02-27T00:24:36.883Z,-10.75
2018-02-27T00:27:05.227Z,-11.01
2018-02-27T00:29:32.815Z,-10.95
2018-02-27T00:32:00.415Z,-10.97
2018-02-27T00:34:28.014Z,-11.02
2018-02-27T00:36:55.605Z,-10.92
2018-02-27T00:39:23.237Z,-11.04
2018-02-27T00:41:50.859Z,-11.05
2018-02-27T00:44:18.484Z,-11.13
2018-02-27T00:46:46.078Z,-11.08
2018-02-27T00:49:14.582Z,-11.12
2018-02-27T00:51:42.205Z,-11.13
2018-02-27T00:54:09.789Z,-11.10
2018-02-27T00:56:37.380Z,-11.02
2018-02-27T00:59:04.996Z,-11.15
2018-02-27T01:01:32.558Z,-11.11
2018-02-27T01:04:00.207Z,-11.21
2018-02-27T01:06:27.783Z,-11.34
2018-02-27T01:08:55.432Z,-11.45
2018-02-27T01:11:23.622Z,-11.42
2018-02-27T01:13:51.207Z,-11.50
2018-02-27T01:16:18.818Z,-11.43
2018-02-27T01:18:46.408Z,-11.46
2018-02-27T01:21:14.210Z,-11.41
2018-02-27T01:23:41.834Z,-11.53
2018-02-27T01:26:09.471Z,-11.39
2018-02-27T01:28:37.058Z,-11.38
2018-02-27T01:31:05.110Z,-11.35
2018-02-27T01:33:32.741Z,-11.40
2018-02-27T01:36:00.324Z,-11.50
2018-02-27T01:38:27.883Z,-11.51
2018-02-27T01:40:55.478Z,-11.58
2018-02-27T01:43:23.068Z,-11.62
2018-02-27T01:45:50.664Z,-11.60
2018-02-27T01:48:18.289Z,-11.57
2018-02-27T01:50:45.972Z,-11.55
2018-02-27T01:53:13.898Z,-11.60
2018-02-27T01:55:41.519Z,-11.59
2018-02-27T01:58:09.174Z,-11.49
2018-02-27T02:00:36.765Z,-11.55
2018-02-27T02:03:04.760Z,-11.70
2018-02-27T02:05:32.365Z,-11.65
2018-02-27T02:07:59.930Z,-11.79
2018-02-27T02:10:27.850Z,-11.84
2018-02-27T02:12:55.474Z,-11.76
2018-02-27T02:15:23.110Z,-11.82
2018-02-27T02:17:50.961Z,-11.86
2018-02-27T02:20:18.578Z,-11.85
2018-02-27T02:22:46.201Z,-11.81
2018-02-27T02:25:13.959Z,-11.95
2018-02-27T02:27:41.591Z,-11.99
2018-02-27T02:30:09.191Z,-11.97
2018-02-27T02:32:36.777Z,-11.88
2018-02-27T02:35:04.445Z,-11.84
2018-02-27T02:37:32.043Z,-11.72
2018-02-27T02:39:59.623Z,-11.87
2018-02-27T02:42:27.296Z,-11.82
2018-02-27T02:44:54.904Z,-11.87
2018-02-27T02:47:22.727Z,-11.79
2018-02-27T02:49:50.338Z,-11.78
2018-02-27T02:52:17.998Z,-11.78
2018-02-27T02:54:45.571Z,-11.85
2018-02-27T02:57:13.824Z,-11.91
2018-02-27T02:59:41.428Z,-11.92
2018-02-27T03:02:09.077Z,-11.92
2018-02-27T03:04:36.656Z,-11.92
2018-02-27T03:07:04.870Z,-11.94
2018-02-27T03:09:32.689Z,-11.95
2018-02-27T03:12:00.680Z,-11.86
2018-02-27T03:14:29.331Z,-11.81
2018-02-27T03:16:57.483Z,-11.82
2018-02-27T03:19:25.159Z,-11.94
2018-02-27T03:21:55.031Z,-12.05
2018-02-27T03:24:22.597Z,-12.13
2018-02-27T03:26:51.464Z,-12.12
2018-02-27T03:29:22.146Z,-12.18
2018-02-27T03:31:49.819Z,-12.13
2018-02-27T03:34:17.570Z,-11.99
2018-02-27T03:36:45.160Z,-12.04
2018-02-27T03:39:13.982Z,-12.12
2018-02-27T03:41:41.924Z,-12.12
2018-02-27T03:44:09.565Z,-12.14
2018-02-27T03:46:37.165Z,-12.11
2018-02-27T03:49:04.842Z,-12.09
2018-02-27T03:51:34.003Z,-12.02
2018-02-27T03:54:04.121Z,-12.03
2018-02-27T03:56:31.819Z,-12.08
2018-02-27T03:59:00.463Z,-12.11
2018-02-27T04:01:28.105Z,-12.08
2018-02-27T04:03:55.719Z,-12.04
2018-02-27T04:06:23.309Z,-11.99
2018-02-27T04:08:50.894Z,-12.08
2018-02-27T04:11:18.486Z,-12.19
2018-02-27T04:13:46.084Z,-12.19
2018-02-27T04:16:13.769Z,-12.29
2018-02-27T04:18:41.390Z,-12.33
2018-02-27T04:21:10.312Z,-12.32
2018-02-27T04:23:40.086Z,-12.26
2018-02-27T04:26:08.023Z,-12.26
2018-02-27T04:28:35.664Z,-12.29
2018-02-27T04:31:03.289Z,-12.30
2018-02-27T04:33:31.154Z,-12.25
2018-02-27T04:35:58.821Z,-12.23
2018-02-27T04:38:31.361Z,-12.27
2018-02-27T04:41:04.455Z,-12.40
2018-02-27T04:43:37.633Z,-12.37
2018-02-27T04:46:10.169Z,-12.38
2018-02-27T04:48:42.282Z,-12.32
2018-02-27T04:53:51.952Z,-12.31
2018-02-27T04:56:24.648Z,-12.32
2018-02-27T04:58:52.274Z,-12.40
2018-02-27T05:01:26.189Z,-12.42
2018-02-27T05:03:54.416Z,-12.37
2018-02-27T05:06:24.615Z,-12.35
2018-02-27T05:08:52.323Z,-12.41
2018-02-27T05:11:22.359Z,-12.44
2018-02-27T05:13:50.127Z,-12.44
2018-02-27T05:16:17.760Z,-12.43
2018-02-27T05:18:45.379Z,-12.45
2018-02-27T05:21:13.543Z,-12.39
2018-02-27T05:23:41.129Z,-12.42
2018-02-27T05:26:08.811Z,-12.37
2018-02-27T05:28:36.454Z,-12.32
2018-02-27T05:31:04.088Z,-12.35
2018-02-27T05:33:31.705Z,-12.41
2018-02-27T05:35:59.508Z,-12.45
2018-02-27T05:38:27.105Z,-12.46
2018-02-27T05:40:54.691Z,-12.46
2018-02-27T05:43:22.924Z,-12.49
2018-02-27T05:45:50.552Z,-12.54
2018-02-27T05:48:18.151Z,-12.45
2018-02-27T05:50:45.742Z,-12.41
2018-02-27T05:53:13.421Z,-12.30
2018-02-27T05:55:42.099Z,-12.48
2018-02-27T05:58:09.728Z,-12.40
2018-02-27T06:00:37.300Z,-12.52
2018-02-27T06:03:04.926Z,-12.53
2018-02-27T06:05:32.578Z,-12.49
2018-02-27T06:08:00.180Z,-12.53
2018-02-27T06:10:28.031Z,-12.62
2018-02-27T06:12:55.729Z,-12.54
2018-02-27T06:15:24.410Z,-12.46
2018-02-27T06:17:52.087Z,-12.41
2018-02-27T06:20:19.649Z,-12.38
2018-02-27T06:22:47.290Z,-12.46
2018-02-27T06:25:14.914Z,-12.51
2018-02-27T06:27:42.528Z,-12.44
2018-02-27T06:30:10.125Z,-12.42
2018-02-27T06:32:37.732Z,-12.35
2018-02-27T06:35:05.678Z,-12.19
2018-02-27T06:37:33.271Z,-12.16
2018-02-27T06:40:02.676Z,-12.20
2018-02-27T06:42:30.280Z,-12.17
2018-02-27T06:44:57.919Z,-12.07
2018-02-27T06:47:28.099Z,-11.97
2018-02-27T06:49:55.683Z,-12.03
2018-02-27T06:52:24.501Z,-11.93
2018-02-27T06:54:52.095Z,-11.98
2018-02-27T06:57:19.754Z,-12.08
2018-02-27T06:59:47.441Z,-12.02
2018-02-27T07:02:15.035Z,-11.91
2018-02-27T07:04:45.157Z,-11.86
2018-02-27T07:07:12.798Z,-11.88
2018-02-27T07:09:40.398Z,-11.93
2018-02-27T07:12:08.034Z,-11.83
2018-02-27T07:14:38.723Z,-11.88
2018-02-27T07:17:06.504Z,-11.64
2018-02-27T07:19:34.108Z,-11.49
2018-02-27T07:22:01.698Z,-11.55
2018-02-27T07:24:29.305Z,-11.42
2018-02-27T07:26:57.482Z,-11.24
2018-02-27T07:29:25.418Z,-10.99
2018-02-27T07:31:53.302Z,-11.17
2018-02-27T07:34:21.497Z,-11.53
2018-02-27T07:36:49.078Z,-11.35
2018-02-27T07:39:16.703Z,-11.31
2018-02-27T07:41:44.450Z,-10.93
2018-02-27T07:44:12.064Z,-10.60
2018-02-27T07:46:41.218Z,-11.13
2018-02-27T07:49:08.958Z,-11.11
2018-02-27T07:51:36.531Z,-11.19
2018-02-27T07:54:04.600Z,-11.20
2018-02-27T07:56:32.180Z,-10.94
2018-02-27T07:58:59.780Z,-11.01
2018-02-27T08:01:27.373Z,-10.84
2018-02-27T08:03:55.009Z,-10.89
2018-02-27T08:06:22.577Z,-11.05
2018-02-27T08:08:50.177Z,-11.13
2018-02-27T08:11:18.299Z,-11.30
2018-02-27T08:13:45.896Z,-11.37
2018-02-27T08:16:14.811Z,-11.30
2018-02-27T08:18:42.345Z,-11.30
2018-02-27T08:21:10.815Z,-11.23
2018-02-27T08:23:38.410Z,-11.11
2018-02-27T08:26:06.032Z,-11.14
2018-02-27T08:28:33.647Z,-11.06
2018-02-27T08:31:02.216Z,-11.06
2018-02-27T08:33:30.844Z,-10.98
2018-02-27T08:35:58.472Z,-10.79
2018-02-27T08:38:27.348Z,-10.81
2018-02-27T08:40:55.012Z,-11.11
2018-02-27T08:43:23.044Z,-10.72
2018-02-27T08:45:51.061Z,-10.74
2018-02-27T08:48:18.694Z,-10.87
2018-02-27T08:50:46.289Z,-10.44
2018-02-27T08:53:14.526Z,-10.61
2018-02-27T08:55:43.023Z,-10.51
2018-02-27T08:58:10.709Z,-10.38
2018-02-27T09:00:38.381Z,-10.46
2018-02-27T09:03:06.119Z,-10.69
2018-02-27T09:05:34.034Z,-10.53
2018-02-27T09:08:01.620Z,-10.35
2018-02-27T09:10:30.478Z,-9.88
2018-02-27T09:12:58.111Z,-10.20
2018-02-27T09:15:25.728Z,-9.97
2018-02-27T09:17:53.319Z,-10.06
2018-02-27T09:20:21.193Z,-10.01
2018-02-27T09:22:48.672Z,-9.97
2018-02-27T09:25:16.389Z,-9.68
2018-02-27T09:27:44.034Z,-9.68
2018-02-27T09:30:11.698Z,-10.04
2018-02-27T09:32:39.310Z,-9.94
2018-02-27T09:35:07.179Z,-9.72
2018-02-27T09:37:35.189Z,-9.34
2018-02-27T09:40:03.146Z,-9.75
2018-02-27T09:42:32.082Z,-9.47
2018-02-27T09:44:59.745Z,-9.07
2018-02-27T09:47:27.332Z,-8.74
2018-02-27T09:49:54.915Z,-9.11
2018-02-27T09:52:24.953Z,-8.98
2018-02-27T09:54:53.466Z,-9.17
2018-02-27T09:57:21.063Z,-9.28
2018-02-27T09:59:48.706Z,-8.90
2018-02-27T10:02:16.306Z,-9.15
2018-02-27T10:04:43.953Z,-9.41
2018-02-27T10:07:12.027Z,-9.40
2018-02-27T10:09:39.690Z,-9.28
2018-02-27T10:12:07.354Z,-9.32
2018-02-27T10:14:34.999Z,-8.77
2018-02-27T10:17:02.630Z,-8.24
2018-02-27T10:19:33.238Z,-7.63
2018-02-27T10:22:00.970Z,-7.68
2018-02-27T10:24:28.604Z,-8.14
2018-02-27T10:26:56.192Z,-8.51
2018-02-27T10:29:23.972Z,-8.62
2018-02-27T10:31:51.934Z,-8.40
2018-02-27T10:34:19.529Z,-8.42
2018-02-27T10:36:47.186Z,-8.98
2018-02-27T10:39:14.786Z,-8.88
2018-02-27T10:41:42.387Z,-9.54
2018-02-27T10:44:10.124Z,-9.58
2018-02-27T10:46:37.707Z,-9.86
2018-02-27T10:49:05.851Z,-9.83
2018-02-27T10:51:33.504Z,-9.88
2018-02-27T10:54:01.127Z,-9.74
2018-02-27T10:56:28.885Z,-9.70
2018-02-27T10:58:56.525Z,-9.56
2018-02-27T11:01:24.152Z,-9.48
2018-02-27T11:03:55.739Z,-9.31
2018-02-27T11:06:23.878Z,-9.23
2018-02-27T11:08:51.503Z,-9.15
2018-02-27T11:11:21.552Z,-9.41
2018-02-27T11:13:49.197Z,-9.75
2018-02-27T11:16:17.151Z,-9.49
2018-02-27T11:18:44.913Z,-9.55
2018-02-27T11:21:12.834Z,-9.71
2018-02-27T11:23:40.408Z,-9.85
2018-02-27T11:26:10.923Z,-9.98
2018-02-27T11:28:42.033Z,-9.70
2018-02-27T11:31:13.556Z,-9.49
2018-02-27T11:33:41.520Z,-9.27
2018-02-27T11:36:10.646Z,-9.31
2018-02-27T11:38:42.630Z,-9.50
2018-02-27T11:41:10.786Z,-9.51
2018-02-27T11:43:38.861Z,-9.06
2018-02-27T11:46:08.224Z,-8.93
2018-02-27T11:48:36.537Z,-8.85
2018-02-27T11:51:05.549Z,-9.04
2018-02-27T11:53:33.986Z,-9.18
2018-02-27T11:56:01.684Z,-9.31
2018-02-27T11:58:29.292Z,-8.98
2018-02-27T12:00:58.902Z,-9.05
2018-02-27T12:03:26.600Z,-9.13
2018-02-27T12:05:54.222Z,-9.83
2018-02-27T12:08:21.907Z,-9.91
2018-02-27T12:10:49.536Z,-9.85
2018-02-27T12:13:17.375Z,-10.09
2018-02-27T12:15:45.228Z,-9.56
2018-02-27T12:18:12.805Z,-9.53
2018-02-27T12:20:40.431Z,-8.72
2018-02-27T12:23:08.612Z,-8.21
2018-02-27T12:25:36.551Z,-8.07
2018-02-27T12:28:04.147Z,-7.96
2018-02-27T12:30:33.869Z,-7.89
2018-02-27T12:33:01.500Z,-8.26
2018-02-27T12:35:29.104Z,-8.21
2018-02-27T12:37:56.745Z,-8.23
2018-02-27T12:40:24.360Z,-7.86
2018-02-27T12:42:51.960Z,-7.92
2018-02-27T12:45:19.614Z,-7.52
2018-02-27T12:47:47.203Z,-7.41
2018-02-27T12:50:14.839Z,-7.77
2018-02-27T12:52:42.448Z,-8.24
2018-02-27T12:55:10.680Z,-8.03
2018-02-27T12:57:42.320Z,-8.03
2018-02-27T13:00:09.933Z,-8.07
2018-02-27T13:02:37.588Z,-7.64
2018-02-27T13:05:05.224Z,-7.80
2018-02-27T13:07:32.957Z,-7.57
2018-02-27T13:10:00.616Z,-7.82
2018-02-27T13:12:28.370Z,-8.00
2018-02-27T13:14:56.098Z,-8.31
2018-02-27T13:17:23.808Z,-8.26
2018-02-27T13:19:51.578Z,-7.97
2018-02-27T13:22:19.928Z,-8.15
2018-02-27T13:24:47.540Z,-7.73
2018-02-27T13:27:15.552Z,-7.87
2018-02-27T13:29:43.141Z,-7.96
2018-02-27T13:32:10.851Z,-7.85
2018-02-27T13:34:38.462Z,-7.99
2018-02-27T13:37:06.376Z,-7.83
2018-02-27T13:39:34.432Z,-7.65
2018-02-27T13:42:02.084Z,-7.54
2018-02-27T13:44:29.791Z,-7.61
2018-02-27T13:46:57.415Z,-7.47
2018-02-27T13:49:25.535Z,-7.65
2018-02-27T13:51:53.185Z,-7.56
2018-02-27T13:54:20.787Z,-7.35
2018-02-27T13:56:48.407Z,-7.21
2018-02-27T13:59:16.024Z,-7.57
2018-02-27T14:01:43.639Z,-7.78
2018-02-27T14:04:11.270Z,-8.01
2018-02-27T14:06:38.868Z,-8.03
2018-02-27T14:09:07.460Z,-8.14
2018-02-27T14:11:35.090Z,-8.39
2018-02-27T14:14:02.675Z,-8.25
2018-02-27T14:16:30.296Z,-7.74
2018-02-27T14:18:57.908Z,-7.72
2018-02-27T14:21:28.030Z,-7.45
2018-02-27T14:23:55.777Z,-7.87
2018-02-27T14:26:23.379Z,-8.14
2018-02-27T14:28:50.979Z,-8.35
2018-02-27T14:31:19.768Z,-8.44
2018-02-27T14:33:47.410Z,-8.26
2018-02-27T14:36:14.994Z,-8.48
2018-02-27T14:38:42.585Z,-8.74
2018-02-27T14:41:10.896Z,-8.72
2018-02-27T14:43:38.464Z,-8.62
2018-02-27T14:46:06.077Z,-8.78
2018-02-27T14:48:33.694Z,-9.00
2018-02-27T14:51:01.273Z,-9.00
2018-02-27T14:53:30.436Z,-9.25
2018-02-27T14:55:58.087Z,-9.16
2018-02-27T14:58:25.974Z,-9.14
2018-02-27T15:00:53.595Z,-9.10
2018-02-27T15:03:25.390Z,-9.15
2018-02-27T15:05:53.676Z,-9.10
2018-02-27T15:08:21.319Z,-9.17
2018-02-27T15:10:48.934Z,-9.29
2018-02-27T15:13:16.725Z,-9.28
2018-02-27T15:15:47.310Z,-9.26
2018-02-27T15:18:15.012Z,-9.33
2018-02-27T15:20:42.620Z,-9.23
2018-02-27T15:23:10.380Z,-9.25
2018-02-27T15:25:37.984Z,-9.20
2018-02-27T15:28:10.852Z,-9.21
2018-02-27T15:30:38.464Z,-9.28
2018-02-27T15:33:06.408Z,-9.32
2018-02-27T15:35:34.233Z,-9.41
2018-02-27T15:38:01.839Z,-9.42
2018-02-27T15:40:29.419Z,-9.45
2018-02-27T15:42:57.009Z,-9.42
2018-02-27T15:45:25.145Z,-9.40
2018-02-27T15:47:52.850Z,-9.32
2018-02-27T15:50:20.512Z,-9.41
2018-02-27T15:52:48.108Z,-9.40
2018-02-27T15:55:16.268Z,-9.31
2018-02-27T15:57:43.902Z,-9.42
2018-02-27T16:00:11.515Z,-9.50
2018-02-27T16:02:39.107Z,-9.58
2018-02-27T16:05:07.064Z,-9.65
2018-02-27T16:07:35.084Z,-9.60
2018-02-27T16:10:02.691Z,-9.55
2018-02-27T16:12:30.286Z,-9.58
2018-02-27T16:14:57.892Z,-9.72
2018-02-27T16:17:25.492Z,-9.86
2018-02-27T16:19:53.068Z,-9.92
2018-02-27T16:22:20.956Z,-9.93
2018-02-27T16:24:48.771Z,-9.97
2018-02-27T16:27:17.410Z,-10.05
2018-02-27T16:29:45.057Z,-10.14
2018-02-27T16:32:12.624Z,-10.08
2018-02-27T16:34:40.303Z,-10.10
2018-02-27T16:37:08.501Z,-10.17
2018-02-27T16:39:37.761Z,-10.19
2018-02-27T16:42:05.382Z,-10.20
2018-02-27T16:44:33.061Z,-10.18
2018-02-27T16:47:00.647Z,-10.19
2018-02-27T16:49:28.249Z,-10.20
2018-02-27T16:51:55.877Z,-10.20
2018-02-27T16:54:25.660Z,-10.26
2018-02-27T16:56:53.272Z,-10.31
2018-02-27T16:59:20.873Z,-10.39
2018-02-27T17:01:48.512Z,-10.42
2018-02-27T17:04:16.183Z,-10.44
2018-02-27T17:06:43.762Z,-10.43
2018-02-27T17:11:45.644Z,-10.41
2018-02-27T17:14:13.276Z,-10.41
2018-02-27T17:16:40.921Z,-10.40
2018-02-27T17:19:09.099Z,-10.47
2018-02-27T17:21:36.735Z,-10.53
2018-02-27T17:24:04.504Z,-10.58
2018-02-27T17:26:32.306Z,-10.55
2018-02-27T17:28:59.970Z,-10.49
2018-02-27T17:31:27.816Z,-10.62
2018-02-27T17:33:55.523Z,-10.58
2018-02-27T17:36:24.462Z,-10.61
2018-02-27T17:38:52.086Z,-10.55
2018-02-27T17:41:21.395Z,-10.56
2018-02-27T17:43:49.119Z,-10.50
2018-02-27T17:46:16.789Z,-10.52
2018-02-27T17:48:44.420Z,-10.51
2018-02-27T17:51:12.288Z,-10.52
2018-02-27T17:53:40.035Z,-10.56
2018-02-27T17:56:07.766Z,-10.53
2018-02-27T17:58:35.546Z,-10.54
2018-02-27T18:01:03.308Z,-10.64
2018-02-27T18:03:31.725Z,-10.63
2018-02-27T18:06:00.049Z,-10.57
2018-02-27T18:08:28.694Z,-10.59
2018-02-27T18:10:56.531Z,-10.62
2018-02-27T18:13:24.706Z,-10.60
2018-02-27T18:15:52.811Z,-10.67
2018-02-27T18:18:21.204Z,-10.70
2018-02-27T18:20:49.824Z,-10.73
2018-02-27T18:23:18.118Z,-10.77
2018-02-27T18:25:46.588Z,-10.79
2018-02-27T18:28:18.222Z,-10.79
2018-02-27T18:30:46.090Z,-10.70
2018-02-27T18:33:14.688Z,-10.69
2018-02-27T18:35:42.571Z,-10.68
2018-02-27T18:38:11.235Z,-10.73
2018-02-27T18:40:39.050Z,-10.75
2018-02-27T18:43:07.158Z,-10.73
2018-02-27T18:45:37.314Z,-10.72
2018-02-27T18:48:05.232Z,-10.73
2018-02-27T18:50:34.672Z,-10.68
2018-02-27T18:53:02.523Z,-10.63
2018-02-27T18:55:30.603Z,-10.59
2018-02-27T18:57:59.136Z,-10.61
2018-02-27T19:00:26.968Z,-10.55
2018-02-27T19:02:56.150Z,-10.50
2018-02-27T19:07:59.630Z,-10.20
2018-02-27T19:10:29.922Z,-10.06
2018-02-27T19:12:59.702Z,-9.91
2018-02-27T19:15:34.287Z,-9.78
2018-02-27T19:18:03.404Z,-9.80
2018-02-27T19:20:31.572Z,-9.95
2018-02-27T19:22:59.829Z,-10.02
2018-02-27T19:25:30.821Z,-9.95
2018-02-27T19:27:58.635Z,-10.12
2018-02-27T19:30:26.542Z,-10.20
2018-02-27T19:32:54.875Z,-10.22
2018-02-27T19:35:22.801Z,-10.01
2018-02-27T19:37:54.413Z,-9.93
2018-02-27T19:40:23.365Z,-9.90
2018-02-27T19:42:51.247Z,-9.88
2018-02-27T19:45:31.726Z,-9.90
2018-02-27T19:48:02.326Z,-9.85
2018-02-27T19:50:30.833Z,-9.79
2018-02-27T19:52:58.703Z,-9.72
2018-02-27T19:55:26.672Z,-9.73
2018-02-27T19:57:58.373Z,-9.90
2018-02-27T20:00:26.396Z,-10.03
2018-02-27T20:02:54.515Z,-10.10
2018-02-27T20:05:23.714Z,-10.17
2018-02-27T20:07:51.683Z,-10.10
2018-02-27T20:10:19.664Z,-10.33
2018-02-27T20:12:47.786Z,-10.32
2018-02-27T20:15:16.354Z,-10.31
2018-02-27T20:17:49.604Z,-10.39
2018-02-27T20:20:17.348Z,-10.55
2018-02-27T20:22:51.377Z,-10.50
2018-02-27T20:25:20.255Z,-10.38
2018-02-27T20:27:48.462Z,-10.38
2018-02-27T20:30:16.274Z,-10.53
2018-02-27T20:32:43.970Z,-10.48
2018-02-27T20:35:12.476Z,-10.57
2018-02-27T20:37:40.461Z,-10.46
2018-02-27T20:40:08.206Z,-10.45
2018-02-27T20:42:36.049Z,-10.67
2018-02-27T20:45:04.990Z,-10.59
2018-02-27T20:47:33.364Z,-10.51
2018-02-27T20:50:01.103Z,-10.40
2018-02-27T20:52:28.838Z,-10.53
2018-02-27T20:54:56.575Z,-10.55
2018-02-27T20:57:27.442Z,-10.66
2018-02-27T20:59:55.104Z,-10.75
2018-02-27T21:02:22.757Z,-10.71
2018-02-27T21:04:50.434Z,-10.82
2018-02-27T21:07:18.635Z,-10.75
2018-02-27T21:09:46.718Z,-10.77
2018-02-27T21:12:14.709Z,-10.79
2018-02-27T21:14:42.321Z,-10.85
2018-02-27T21:17:10.824Z,-10.92
2018-02-27T21:19:38.598Z,-10.95
2018-02-27T21:22:06.174Z,-10.94
2018-02-27T21:24:33.798Z,-10.89
2018-02-27T21:27:01.410Z,-10.97
2018-02-27T21:29:29.397Z,-11.08
2018-02-27T21:34:47.342Z,-11.28
2018-02-27T21:37:15.067Z,-11.40
2018-02-27T21:39:42.778Z,-11.46
2018-02-27T21:42:10.920Z,-11.47
2018-02-27T21:44:38.524Z,-11.45
2018-02-27T21:47:06.577Z,-11.43
2018-02-27T21:49:34.345Z,-11.40
2018-02-27T21:52:02.005Z,-11.39
2018-02-27T21:54:29.658Z,-11.35
2018-02-27T21:56:57.319Z,-11.36
2018-02-27T21:59:24.976Z,-11.43
2018-02-27T22:01:52.591Z,-11.49
2018-02-27T22:04:20.292Z,-11.48
2018-02-27T22:06:47.981Z,-11.38
2018-02-27T22:09:15.970Z,-11.35
2018-02-27T22:11:43.713Z,-11.20
2018-02-27T22:14:11.338Z,-11.16
2018-02-27T22:16:38.948Z,-11.13
2018-02-27T22:19:07.427Z,-11.10
2018-02-27T22:21:35.372Z,-10.96
2018-02-27T22:24:03.003Z,-10.94
2018-02-27T22:26:30.683Z,-10.90
2018-02-27T22:28:58.271Z,-10.97
2018-02-27T22:31:25.939Z,-11.13
2018-02-27T22:33:53.658Z,-11.22
2018-02-27T22:36:21.504Z,-11.30
2018-02-27T22:38:49.185Z,-11.36
2018-02-27T22:41:16.933Z,-11.31
2018-02-27T22:43:44.569Z,-11.31
2018-02-27T22:46:12.420Z,-11.28
2018-02-27T22:48:40.008Z,-11.27
2018-02-27T22:51:08.165Z,-11.29
2018-02-27T22:53:36.292Z,-11.38
2018-02-27T22:56:03.918Z,-11.40
2018-02-27T22:58:31.556Z,-11.58
2018-02-27T23:00:59.198Z,-11.58
2018-02-27T23:03:26.863Z,-11.52
2018-02-27T23:05:54.459Z,-11.56
2018-02-27T23:08:26.870Z,-11.74
2018-02-27T23:10:54.491Z,-11.84
2018-02-27T23:13:28.113Z,-11.95
2018-02-27T23:15:55.896Z,-11.98
2018-02-27T23:18:23.524Z,-11.83
2018-02-27T23:20:51.769Z,-11.84
2018-02-27T23:23:20.452Z,-11.86
2018-02-27T23:26:07.405Z,-11.59
2018-02-27T23:28:42.524Z,-11.61
2018-02-27T23:31:11.673Z,-11.67
2018-02-27T23:33:44.008Z,-11.83
2018-02-27T23:36:11.659Z,-11.82
2018-02-27T23:38:39.313Z,-11.82
2018-02-27T23:41:07.247Z,-11.61
2018-02-27T23:43:35.099Z,-11.66
2018-02-27T23:46:02.676Z,-11.77
2018-02-27T23:48:30.335Z,-11.83
2018-02-27T23:50:57.916Z,-11.91
2018-02-27T23:53:25.881Z,-11.93
2018-02-27T23:55:53.791Z,-11.73
2018-02-27T23:58:21.369Z,-11.67
